Time;durP1;ratioP1;P1;durP2;ratioP2;P2;SDS_P1;SDS_P2;PMS_P1;PMS_P2;Temp;Humidity;BMP_temperature;BMP_pressure;BME280_temperature;BME280_humidity;BME280_pressure;Samples;Min_cycle;Max_cycle;Signal;HPM_P1;HPM_P2
2022/05/19 00:02:19;;;;;;;32.45;17.48;;;20.90;80.80;;;;;;4993579;28;20113;-64
2022/05/19 00:04:46;;;;;;;33.85;17.67;;;20.90;81.10;;;;;;4993557;28;20435;-64
2022/05/19 00:07:12;;;;;;;31.33;17.65;;;20.80;81.20;;;;;;4992870;28;20050;-64
2022/05/19 00:09:38;;;;;;;30.80;16.77;;;20.80;81.30;;;;;;4993249;28;20046;-64
2022/05/19 00:12:15;;;;;;;33.10;16.02;;;20.80;81.50;;;;;;4993402;28;20042;-64
2022/05/19 00:14:41;;;;;;;32.60;18.00;;;20.80;81.60;;;;;;4992785;28;20026;-64
2022/05/19 00:17:07;;;;;;;33.55;17.77;;;20.80;81.80;;;;;;4993437;28;20034;-64
2022/05/19 00:19:32;;;;;;;31.48;18.35;;;20.70;81.90;;;;;;4992896;28;20034;-64
2022/05/19 00:21:58;;;;;;;31.02;17.67;;;20.70;82.00;;;;;;4992859;28;20054;-64
2022/05/19 00:24:28;;;;;;;31.70;18.40;;;20.70;82.20;;;;;;4993149;28;20031;-64
2022/05/19 00:26:56;;;;;;;37.83;18.23;;;20.70;82.30;;;;;;4984524;28;20034;-64
2022/05/19 00:29:24;;;;;;;30.63;17.00;;;20.70;82.40;;;;;;4979054;28;20129;-64
2022/05/19 00:31:49;;;;;;;34.72;17.70;;;20.70;82.40;;;;;;4993200;28;20061;-64
2022/05/19 00:34:16;;;;;;;35.85;16.30;;;20.60;82.50;;;;;;4993175;28;20467;-64
2022/05/19 00:36:45;;;;;;;24.65;16.42;;;20.60;82.50;;;;;;4992837;28;20073;-64
2022/05/19 00:39:12;;;;;;;31.55;16.77;;;20.60;82.50;;;;;;4993259;28;20030;-64
2022/05/19 00:41:45;;;;;;;29.70;16.45;;;20.60;82.60;;;;;;4993353;28;20426;-64
2022/05/19 00:44:12;;;;;;;30.65;16.60;;;20.60;82.70;;;;;;4990195;28;20026;-64
2022/05/19 00:46:54;;;;;;;27.45;17.52;;;20.60;82.80;;;;;;4993005;28;20082;-64
2022/05/19 00:49:30;;;;;;;33.97;17.17;;;20.50;83.10;;;;;;4991559;28;20073;-64
2022/05/19 00:52:01;;;;;;;35.85;17.55;;;20.50;83.20;;;;;;4993053;28;20023;-64
2022/05/19 00:54:35;;;;;;;31.50;18.70;;;20.60;83.40;;;;;;4989525;28;20393;-64
2022/05/19 00:57:21;;;;;;;31.05;17.00;;;20.50;83.50;;;;;;4988627;28;20026;-64
2022/05/19 01:00:15;;;;;;;34.17;16.67;;;20.50;83.70;;;;;;4991523;28;20125;-64
2022/05/19 01:02:45;;;;;;;;;;;20.50;83.90;;;;;;4988055;28;20042;-64
2022/05/19 01:05:18;;;;;;;28.77;15.80;;;20.40;83.50;;;;;;4991312;28;19910;-64
2022/05/19 01:07:46;;;;;;;;;;;20.40;83.90;;;;;;4989949;28;20050;-64
2022/05/19 01:10:13;;;;;;;29.77;16.98;;;20.40;83.70;;;;;;4990096;28;20340;-64
2022/05/19 01:12:40;;;;;;;29.52;15.45;;;20.40;84.00;;;;;;4991554;28;20026;-64
2022/05/19 01:15:07;;;;;;;35.00;16.38;;;20.30;84.50;;;;;;4991728;28;20038;-64
2022/05/19 01:17:34;;;;;;;42.05;17.45;;;20.30;84.90;;;;;;4991456;28;20054;-64
2022/05/19 01:20:07;;;;;;;28.55;16.90;;;20.30;85.20;;;;;;4991826;28;20038;-64
2022/05/19 01:22:51;;;;;;;32.42;18.02;;;20.30;85.40;;;;;;4992080;28;20034;-64
2022/05/19 01:25:26;;;;;;;32.95;17.83;;;20.20;85.30;;;;;;4990379;28;20031;-64
2022/05/19 01:27:58;;;;;;;33.38;18.02;;;20.20;85.40;;;;;;4991383;28;20047;-64
2022/05/19 01:30:25;;;;;;;26.83;17.93;;;20.20;85.60;;;;;;4992793;28;20027;-64
2022/05/19 01:32:54;;;;;;;33.05;19.30;;;20.20;85.80;;;;;;4991895;28;20125;-63
2022/05/19 01:35:20;;;;;;;34.78;21.58;;;20.20;86.10;;;;;;4992698;28;20120;-64
2022/05/19 01:37:46;;;;;;;34.00;20.38;;;20.20;86.40;;;;;;4990977;28;20042;-64
2022/05/19 01:40:23;;;;;;;29.90;20.90;;;20.10;86.60;;;;;;4993003;28;20045;-64
2022/05/19 01:43:02;;;;;;;38.33;21.85;;;20.20;86.70;;;;;;4995607;28;20117;-64
2022/05/19 01:45:45;;;;;;;40.13;23.33;;;20.10;86.70;;;;;;4994995;28;20076;-64
2022/05/19 01:48:22;;;;;;;40.73;23.33;;;20.10;86.80;;;;;;4995982;28;20049;-64
2022/05/19 01:51:07;;;;;;;34.90;20.95;;;20.10;86.90;;;;;;4995860;28;20042;-64
2022/05/19 01:53:58;;;;;;;35.17;20.67;;;20.10;86.90;;;;;;4995323;28;20037;-64
2022/05/19 01:56:39;;;;;;;31.15;19.25;;;20.10;87.00;;;;;;4995632;28;20474;-64
2022/05/19 01:59:45;;;;;;;37.17;21.38;;;20.00;87.00;;;;;;4995718;28;20060;-64
2022/05/19 02:02:12;;;;;;;37.28;19.90;;;20.00;87.20;;;;;;4995832;28;20030;-64
2022/05/19 02:05:22;;;;;;;40.53;20.92;;;20.00;87.60;;;;;;4995601;28;20030;-64
2022/05/19 02:07:53;;;;;;;43.10;22.02;;;20.00;88.00;;;;;;4994531;28;20050;-64
2022/05/19 02:10:31;;;;;;;39.15;21.70;;;19.90;88.10;;;;;;4995792;28;20029;-64
2022/05/19 02:13:01;;;;;;;41.05;19.95;;;19.90;88.40;;;;;;4995385;28;20038;-64
2022/05/19 02:15:29;;;;;;;39.22;20.70;;;19.90;88.70;;;;;;4994955;28;20109;-64
2022/05/19 02:17:56;;;;;;;35.55;19.73;;;19.90;89.00;;;;;;4995572;28;20054;-64
2022/05/19 02:20:28;;;;;;;35.42;20.35;;;19.90;89.20;;;;;;4995404;28;20026;-65
2022/05/19 02:22:53;;;;;;;36.75;19.92;;;19.80;89.70;;;;;;4993840;28;20038;-64
2022/05/19 02:25:27;;;;;;;28.30;18.02;;;19.80;89.60;;;;;;4995334;28;20026;-65
2022/05/19 02:28:05;;;;;;;29.13;17.98;;;19.80;89.80;;;;;;4993313;28;20079;-64
2022/05/19 02:30:34;;;;;;;33.00;19.13;;;19.80;89.90;;;;;;4993903;28;20062;-64
2022/05/19 02:33:00;;;;;;;32.03;19.17;;;19.80;90.20;;;;;;4994548;28;20022;-64
2022/05/19 02:35:26;;;;;;;34.83;18.15;;;19.80;90.00;;;;;;4993705;28;20077;-63
2022/05/19 02:37:54;;;;;;;31.85;19.15;;;19.80;89.90;;;;;;4994010;28;20042;-70
2022/05/19 02:40:22;;;;;;;33.70;18.55;;;19.90;90.10;;;;;;4994205;28;20026;-66
2022/05/19 02:42:48;;;;;;;39.80;18.98;;;19.80;90.30;;;;;;4993247;28;20038;-66
2022/05/19 02:45:15;;;;;;;33.78;17.98;;;19.80;90.30;;;;;;4993702;28;20018;-66
2022/05/19 02:47:41;;;;;;;32.13;17.15;;;19.80;90.30;;;;;;4994613;28;20038;-66
2022/05/19 02:50:08;;;;;;;29.88;18.42;;;19.80;90.20;;;;;;4993914;28;20061;-66
2022/05/19 02:52:34;;;;;;;36.90;19.52;;;19.80;90.10;;;;;;4993791;28;20035;-66
2022/05/19 02:55:00;;;;;;;36.08;19.05;;;19.80;90.00;;;;;;4994513;28;20050;-66
2022/05/19 02:57:26;;;;;;;40.22;20.67;;;19.80;90.10;;;;;;4994210;28;20030;-66
2022/05/19 02:59:51;;;;;;;31.65;19.67;;;19.80;90.10;;;;;;4994510;28;20026;-66
2022/05/19 03:02:17;;;;;;;34.28;19.88;;;19.80;90.00;;;;;;4994864;28;20351;-66
2022/05/19 03:04:43;;;;;;;42.08;21.40;;;19.80;90.10;;;;;;4993963;28;20037;-66
2022/05/19 03:07:09;;;;;;;39.33;22.08;;;19.80;90.20;;;;;;4994648;28;20030;-66
2022/05/19 03:09:35;;;;;;;39.10;21.58;;;19.80;90.30;;;;;;4994299;28;20030;-66
2022/05/19 03:12:01;;;;;;;39.83;22.80;;;19.80;90.30;;;;;;4993860;28;20097;-66
2022/05/19 03:14:29;;;;;;;43.03;23.23;;;19.80;90.40;;;;;;4994078;28;20054;-66
2022/05/19 03:16:54;;;;;;;35.97;23.20;;;19.80;90.50;;;;;;4994001;28;20032;-66
2022/05/19 03:19:21;;;;;;;39.30;23.23;;;19.80;90.50;;;;;;4994451;28;20429;-66
2022/05/19 03:21:47;;;;;;;37.40;23.35;;;19.80;90.50;;;;;;4994167;28;20042;-66
2022/05/19 03:24:12;;;;;;;37.60;23.90;;;19.80;90.60;;;;;;4993921;28;20081;-66
2022/05/19 03:26:38;;;;;;;38.95;24.38;;;19.80;90.50;;;;;;4993958;28;20442;-66
2022/05/19 03:29:04;;;;;;;43.25;25.08;;;19.80;90.40;;;;;;4981018;28;20049;-66
2022/05/19 03:31:30;;;;;;;47.88;23.77;;;19.80;90.40;;;;;;4993709;28;20029;-66
2022/05/19 03:33:56;;;;;;;48.08;25.02;;;19.80;90.50;;;;;;4993847;28;20398;-66
2022/05/19 03:36:22;;;;;;;38.53;26.33;;;19.80;90.50;;;;;;4994253;28;20026;-66
2022/05/19 03:38:47;;;;;;;47.47;29.35;;;19.80;90.50;;;;;;4993183;28;20381;-66
2022/05/19 03:41:13;;;;;;;48.90;29.83;;;19.80;90.90;;;;;;4994030;28;20041;-66
2022/05/19 03:43:39;;;;;;;48.33;28.27;;;19.80;90.80;;;;;;4993646;28;20041;-66
2022/05/19 03:46:05;;;;;;;53.13;31.45;;;19.80;90.90;;;;;;4993273;28;20084;-66
2022/05/19 03:48:37;;;;;;;50.70;30.60;;;19.80;91.00;;;;;;4993764;28;20478;-66
2022/05/19 03:51:08;;;;;;;55.58;33.22;;;19.80;91.10;;;;;;4993883;28;20471;-66
2022/05/19 03:53:34;;;;;;;50.75;30.58;;;19.80;91.10;;;;;;4993404;28;20367;-66
2022/05/19 03:56:00;;;;;;;55.17;32.92;;;19.80;91.10;;;;;;4993689;28;20041;-66
2022/05/19 03:58:26;;;;;;;55.63;31.48;;;19.80;91.10;;;;;;4993661;28;20041;-66
2022/05/19 04:00:51;;;;;;;57.53;31.65;;;19.80;91.10;;;;;;4992887;28;20026;-66
2022/05/19 04:03:17;;;;;;;61.33;33.60;;;19.80;91.00;;;;;;4993919;28;20110;-66
2022/05/19 04:05:43;;;;;;;63.33;33.22;;;19.80;91.00;;;;;;4993298;28;20554;-66
2022/05/19 04:08:09;;;;;;;60.92;33.90;;;19.80;91.10;;;;;;4992656;28;20136;-66
2022/05/19 04:10:35;;;;;;;54.47;33.13;;;19.80;91.20;;;;;;4993364;28;20038;-66
2022/05/19 04:13:01;;;;;;;59.35;31.38;;;19.80;91.10;;;;;;4992685;28;20054;-66
2022/05/19 04:15:27;;;;;;;76.47;36.53;;;19.80;91.10;;;;;;4993223;28;20085;-66
2022/05/19 04:17:53;;;;;;;61.75;35.70;;;19.80;91.10;;;;;;4993494;28;20113;-66
2022/05/19 04:20:18;;;;;;;61.67;35.40;;;19.80;91.30;;;;;;4992487;28;20137;-66
2022/05/19 04:22:44;;;;;;;61.75;33.65;;;19.80;91.40;;;;;;4993368;28;20045;-66
2022/05/19 04:25:11;;;;;;;56.83;34.38;;;19.90;91.60;;;;;;4993044;28;20018;-66
2022/05/19 04:27:37;;;;;;;60.22;34.15;;;19.90;91.40;;;;;;4992593;28;20027;-66
2022/05/19 04:30:04;;;;;;;56.97;35.58;;;19.90;91.30;;;;;;4993330;28;20030;-66
2022/05/19 04:32:30;;;;;;;60.97;36.60;;;19.80;91.40;;;;;;4993153;28;20030;-66
2022/05/19 04:34:57;;;;;;;52.13;29.98;;;19.80;91.40;;;;;;4992714;28;20379;-66
2022/05/19 04:37:23;;;;;;;57.00;32.85;;;19.80;91.10;;;;;;4993019;28;20033;-66
2022/05/19 04:39:48;;;;;;;53.20;29.90;;;19.80;91.20;;;;;;4992887;28;20046;-66
2022/05/19 04:42:14;;;;;;;56.63;33.92;;;19.80;91.30;;;;;;4992213;28;20022;-66
2022/05/19 04:44:40;;;;;;;56.47;31.52;;;19.80;91.30;;;;;;4992497;28;20124;-66
2022/05/19 04:47:06;;;;;;;61.25;35.83;;;19.80;91.40;;;;;;4992627;28;20375;-66
2022/05/19 04:49:32;;;;;;;51.17;30.27;;;19.80;91.80;;;;;;4992261;28;20066;-66
2022/05/19 04:51:58;;;;;;;44.72;26.33;;;19.80;91.70;;;;;;4993015;28;20089;-66
2022/05/19 04:54:25;;;;;;;47.72;28.75;;;19.80;91.50;;;;;;4992782;28;20039;-66
2022/05/19 04:56:51;;;;;;;46.10;28.05;;;19.80;91.70;;;;;;4992415;28;20031;-66
2022/05/19 04:59:17;;;;;;;41.75;24.73;;;19.80;91.90;;;;;;4989677;28;20026;-67
2022/05/19 05:01:48;;;;;;;37.10;23.23;;;19.90;91.60;;;;;;4993518;28;20058;-67
2022/05/19 05:04:15;;;;;;;43.75;26.48;;;19.80;91.20;;;;;;4994345;28;20113;-66
2022/05/19 05:06:41;;;;;;;41.40;25.92;;;19.80;91.10;;;;;;4980804;28;20476;-67
2022/05/19 05:09:08;;;;;;;42.47;26.65;;;19.80;91.00;;;;;;4991369;28;20389;-69
2022/05/19 05:11:34;;;;;;;52.92;27.23;;;19.90;91.40;;;;;;4989872;28;20030;-67
2022/05/19 05:14:00;;;;;;;30.38;18.15;;;19.90;91.60;;;;;;4991088;28;20121;-68
2022/05/19 05:16:25;;;;;;;34.22;19.38;;;19.90;91.50;;;;;;4993410;28;20042;-69
2022/05/19 05:18:51;;;;;;;42.75;24.98;;;20.00;91.30;;;;;;4992157;28;20470;-67
2022/05/19 05:21:17;;;;;;;40.13;21.90;;;20.00;91.50;;;;;;4992837;28;20029;-67
2022/05/19 05:23:43;;;;;;;41.25;25.13;;;20.00;91.60;;;;;;4993630;28;20030;-68
2022/05/19 05:26:09;;;;;;;37.15;24.20;;;20.00;91.70;;;;;;4993788;28;20394;-68
2022/05/19 05:28:36;;;;;;;47.83;26.50;;;20.00;91.70;;;;;;4989376;28;20129;-70
2022/05/19 05:31:03;;;;;;;49.72;23.95;;;20.10;91.90;;;;;;4991548;28;20030;-69
2022/05/19 05:33:28;;;;;;;51.88;25.35;;;20.10;91.90;;;;;;4993245;28;20053;-70
2022/05/19 05:35:57;;;;;;;56.97;25.63;;;20.10;91.70;;;;;;4992099;28;20084;-70
2022/05/19 05:38:23;;;;;;;44.75;24.85;;;20.10;91.50;;;;;;4992769;28;20026;-70
2022/05/19 05:40:55;;;;;;;44.10;22.42;;;20.20;91.30;;;;;;4993368;28;20448;-70
2022/05/19 05:43:22;;;;;;;45.30;24.77;;;20.20;90.50;;;;;;4993202;28;20038;-70
2022/05/19 05:45:49;;;;;;;42.38;24.90;;;20.20;90.30;;;;;;4992821;28;20046;-69
2022/05/19 05:48:15;;;;;;;44.03;23.75;;;20.20;90.40;;;;;;4994226;28;20696;-69
2022/05/19 05:50:42;;;;;;;48.08;25.35;;;20.20;90.00;;;;;;4993442;28;20042;-71
2022/05/19 05:53:08;;;;;;;40.80;22.30;;;20.20;89.90;;;;;;4993269;28;20034;-69
2022/05/19 05:55:35;;;;;;;21.38;11.27;;;20.20;89.40;;;;;;4993739;28;20072;-69
2022/05/19 05:58:09;;;;;;;42.17;23.27;;;20.20;88.30;;;;;;4996121;28;20046;-69
2022/05/19 06:00:35;;;;;;;;;;;20.20;89.70;;;;;;4993004;28;20038;-68
2022/05/19 06:03:01;;;;;;;32.28;18.83;;;20.20;88.60;;;;;;4992163;28;19910;-70
2022/05/19 06:05:26;;;;;;;19.90;10.88;;;20.20;89.50;;;;;;4991122;28;20022;-70
2022/05/19 06:07:52;;;;;;;40.70;20.17;;;20.20;89.50;;;;;;4990419;28;20050;-70
2022/05/19 06:10:18;;;;;;;16.92;7.22;;;20.20;90.30;;;;;;4990282;28;20389;-70
2022/05/19 06:12:44;;;;;;;13.88;7.22;;;20.20;90.60;;;;;;4989581;28;20448;-70
2022/05/19 06:15:13;;;;;;;16.13;9.98;;;20.20;90.80;;;;;;4990094;28;20045;-70
2022/05/19 06:17:39;;;;;;;17.83;9.63;;;20.20;91.20;;;;;;4989458;28;20045;-69
2022/05/19 06:20:08;;;;;;;22.75;10.77;;;20.20;91.50;;;;;;4991305;28;20042;-68
2022/05/19 06:22:33;;;;;;;10.85;6.60;;;20.20;91.60;;;;;;4992801;28;20534;-68
2022/05/19 06:24:59;;;;;;;20.60;11.73;;;20.20;91.90;;;;;;4992969;28;20145;-68
2022/05/19 06:27:24;;;;;;;30.73;18.90;;;20.20;91.90;;;;;;4990623;28;20058;-68
2022/05/19 06:29:50;;;;;;;22.35;11.02;;;20.20;92.00;;;;;;4991257;28;20058;-68
2022/05/19 06:32:16;;;;;;;21.00;11.65;;;20.30;91.90;;;;;;4992350;28;20038;-68
2022/05/19 06:34:43;;;;;;;26.83;14.32;;;20.30;91.80;;;;;;4991347;28;20046;-68
2022/05/19 06:37:08;;;;;;;9.70;5.40;;;20.40;91.80;;;;;;4993372;28;20031;-68
2022/05/19 06:39:34;;;;;;;34.67;20.20;;;20.40;91.50;;;;;;4993103;28;20117;-68
2022/05/19 06:42:00;;;;;;;31.98;16.52;;;20.50;91.70;;;;;;4992416;28;20030;-70
2022/05/19 06:44:31;;;;;;;38.33;21.48;;;20.60;91.60;;;;;;4992820;28;20033;-68
2022/05/19 06:46:57;;;;;;;36.45;19.63;;;20.70;91.90;;;;;;4991998;28;20648;-68
2022/05/19 06:49:23;;;;;;;26.58;16.88;;;20.70;91.70;;;;;;4991167;28;20125;-68
2022/05/19 06:51:49;;;;;;;33.60;18.98;;;20.70;91.70;;;;;;4990767;28;20109;-67
2022/05/19 06:54:14;;;;;;;35.03;19.02;;;20.90;91.90;;;;;;4983676;28;20758;-67
2022/05/19 06:56:40;;;;;;;26.25;16.50;;;20.90;92.00;;;;;;4982652;28;20045;-67
2022/05/19 06:59:07;;;;;;;28.17;15.43;;;21.00;92.00;;;;;;4991521;28;20038;-67
2022/05/19 07:01:33;;;;;;;27.55;16.23;;;21.10;91.90;;;;;;4991395;28;20034;-67
2022/05/19 07:03:59;;;;;;;25.45;15.20;;;21.10;91.80;;;;;;4994041;28;20061;-68
2022/05/19 07:06:25;;;;;;;25.75;15.98;;;21.20;91.80;;;;;;4994471;28;20105;-68
2022/05/19 07:08:51;;;;;;;25.77;15.27;;;21.20;91.60;;;;;;4993706;28;20461;-68
2022/05/19 07:11:29;;;;;;;28.63;16.02;;;21.20;91.10;;;;;;4993856;28;20038;-68
2022/05/19 07:13:57;;;;;;;22.98;15.77;;;21.30;91.10;;;;;;4994653;28;20037;-67
2022/05/19 07:16:23;;;;;;;26.08;14.20;;;21.30;91.00;;;;;;4985424;28;20026;-68
2022/05/19 07:20:43;;;;;;;27.60;15.90;;;21.40;90.80;;;;;;4994404;28;20500;-68
2022/05/19 07:21:37;;;;;;;23.70;11.60;;;21.40;90.90;;;;;;4994422;28;20037;-68
2022/05/19 07:24:03;;;;;;;15.93;9.18;;;21.40;90.70;;;;;;4993462;28;20386;-68
2022/05/19 07:26:29;;;;;;;19.23;9.32;;;21.40;90.60;;;;;;4993961;28;20161;-68
2022/05/19 07:28:54;;;;;;;12.60;5.88;;;21.50;90.80;;;;;;4994206;28;20034;-68
2022/05/19 07:31:20;;;;;;;14.35;5.90;;;21.50;90.70;;;;;;4993537;28;20456;-68
2022/05/19 07:33:46;;;;;;;13.25;4.70;;;21.40;91.00;;;;;;4993944;28;20853;-68
2022/05/19 07:36:12;;;;;;;12.48;6.60;;;21.40;91.00;;;;;;4993999;28;20026;-68
2022/05/19 07:38:38;;;;;;;15.90;7.32;;;21.40;91.30;;;;;;4993203;28;20502;-68
2022/05/19 07:41:03;;;;;;;14.23;5.78;;;21.40;91.40;;;;;;4993848;28;20054;-68
2022/05/19 07:43:39;;;;;;;15.02;7.05;;;21.40;91.40;;;;;;4993752;28;20042;-68
2022/05/19 07:46:06;;;;;;;15.40;6.50;;;21.40;91.50;;;;;;4993075;28;20802;-68
2022/05/19 07:48:32;;;;;;;19.75;7.18;;;21.40;91.60;;;;;;4993495;28;20042;-68
2022/05/19 07:50:58;;;;;;;15.00;7.05;;;21.40;91.70;;;;;;4993483;28;20034;-68
2022/05/19 07:53:25;;;;;;;13.32;7.13;;;21.40;91.80;;;;;;4992195;28;20402;-68
2022/05/19 07:55:50;;;;;;;16.13;7.80;;;21.40;91.50;;;;;;4993865;28;20035;-68
2022/05/19 07:58:16;;;;;;;17.15;8.07;;;21.40;91.50;;;;;;4993272;28;20045;-68
2022/05/19 08:00:42;;;;;;;17.90;9.02;;;21.40;91.60;;;;;;4992587;28;20039;-68
2022/05/19 08:03:08;;;;;;;16.42;8.70;;;21.40;91.60;;;;;;4992576;28;20165;-67
2022/05/19 08:05:34;;;;;;;23.70;10.52;;;21.40;91.70;;;;;;4992288;28;20109;-69
2022/05/19 08:08:00;;;;;;;20.17;10.05;;;21.40;91.60;;;;;;4991461;28;20046;-70
2022/05/19 08:10:26;;;;;;;17.48;10.00;;;21.40;91.70;;;;;;4991811;28;20042;-70
2022/05/19 08:15:43;;;;;;;17.50;9.38;;;21.50;91.90;;;;;;4989542;28;20055;-68
2022/05/19 08:18:13;;;;;;;20.83;9.88;;;21.50;91.80;;;;;;4990352;28;20026;-68
2022/05/19 08:21:00;;;;;;;19.55;9.05;;;21.40;91.80;;;;;;4989026;28;20177;-68
2022/05/19 08:23:31;;;;;;;18.88;10.52;;;21.50;91.80;;;;;;4990474;28;20037;-68
2022/05/19 08:25:58;;;;;;;19.92;9.45;;;21.50;91.90;;;;;;4989662;28;20517;-68
2022/05/19 08:28:29;;;;;;;22.27;8.50;;;21.50;91.80;;;;;;4989254;28;20478;-68
2022/05/19 08:31:01;;;;;;;18.92;8.57;;;21.50;91.80;;;;;;4990213;28;20069;-68
2022/05/19 08:33:28;;;;;;;;;;;21.50;91.90;;;;;;4989299;28;20034;-68
2022/05/19 08:35:54;;;;;;;16.60;8.98;;;21.50;91.70;;;;;;4990609;28;19916;-68
2022/05/19 08:38:21;;;;;;;21.67;9.13;;;21.50;91.80;;;;;;4991893;28;20031;-68
2022/05/19 08:41:05;;;;;;;15.32;8.07;;;21.40;91.80;;;;;;4991717;28;20038;-68
2022/05/19 08:43:48;;;;;;;20.38;8.57;;;21.50;91.80;;;;;;4992763;28;20121;-68
2022/05/19 08:46:37;;;;;;;22.88;10.27;;;21.50;91.90;;;;;;4992007;28;20038;-68
2022/05/19 08:49:14;;;;;;;20.77;8.35;;;21.40;91.90;;;;;;4967947;28;20050;-68
2022/05/19 08:51:49;;;;;;;14.88;5.82;;;21.50;91.80;;;;;;4992655;28;20541;-68
2022/05/19 08:54:22;;;;;;;16.85;8.25;;;21.50;91.70;;;;;;4984356;28;20018;-68
2022/05/19 08:57:16;;;;;;;21.85;9.00;;;21.50;91.60;;;;;;4995829;28;20505;-68
2022/05/19 09:00:07;;;;;;;22.92;8.95;;;21.50;91.70;;;;;;4986375;28;20572;-68
2022/05/19 09:02:40;;;;;;;20.90;7.50;;;21.60;91.70;;;;;;4984588;28;20034;-68
2022/05/19 09:05:14;;;;;;;20.33;7.05;;;21.60;91.60;;;;;;4995596;28;20438;-68
2022/05/19 09:08:08;;;;;;;17.20;7.05;;;21.60;91.40;;;;;;4993652;28;20046;-70
2022/05/19 09:10:40;;;;;;;19.17;7.07;;;21.60;91.30;;;;;;4992289;28;20039;-71
2022/05/19 09:13:35;;;;;;;19.10;7.47;;;21.60;91.20;;;;;;4993153;28;20126;-70
2022/05/19 09:16:19;;;;;;;15.43;7.05;;;21.70;91.30;;;;;;4986371;28;20049;-69
2022/05/19 09:18:53;;;;;;;16.63;6.90;;;21.60;91.20;;;;;;4996332;28;20092;-68
2022/05/19 09:21:19;;;;;;;14.82;6.63;;;21.60;91.30;;;;;;4995376;28;20030;-68
2022/05/19 09:23:44;;;;;;;18.27;7.88;;;21.60;91.30;;;;;;4995352;28;20489;-68
2022/05/19 09:26:33;;;;;;;19.23;7.47;;;21.70;91.50;;;;;;4996531;28;20038;-68
2022/05/19 09:29:04;;;;;;;15.13;7.03;;;21.70;91.40;;;;;;4984489;28;20050;-68
2022/05/19 09:31:46;;;;;;;30.30;7.80;;;21.80;91.30;;;;;;4994107;28;20458;-68
2022/05/19 09:34:13;;;;;;;15.48;7.65;;;21.80;91.30;;;;;;4995825;28;20117;-68
2022/05/19 09:36:53;;;;;;;25.17;8.10;;;21.80;91.40;;;;;;4995394;28;20046;-68
2022/05/19 09:39:20;;;;;;;16.23;7.78;;;21.80;91.70;;;;;;4994822;28;20437;-68
2022/05/19 09:41:51;;;;;;;21.95;8.32;;;21.90;91.60;;;;;;4995252;28;20028;-68
2022/05/19 09:44:25;;;;;;;16.00;7.93;;;21.90;91.20;;;;;;4995264;28;20489;-69
2022/05/19 09:46:51;;;;;;;20.63;9.27;;;22.00;91.40;;;;;;4995348;28;20038;-68
2022/05/19 09:49:28;;;;;;;18.00;8.57;;;22.00;91.20;;;;;;4995915;28;20046;-68
2022/05/19 09:52:04;;;;;;;19.33;7.93;;;22.10;91.20;;;;;;4995502;28;20485;-68
2022/05/19 09:54:32;;;;;;;16.40;8.00;;;22.10;91.20;;;;;;4995952;28;20076;-68
2022/05/19 09:57:13;;;;;;;25.42;8.45;;;22.20;91.20;;;;;;4996367;28;20035;-67
2022/05/19 09:59:47;;;;;;;13.27;7.32;;;22.30;91.30;;;;;;4995095;28;20038;-68
2022/05/19 10:02:26;;;;;;;15.13;6.95;;;22.40;91.30;;;;;;4992921;28;20042;-68
2022/05/19 10:04:55;;;;;;;21.23;8.70;;;22.40;91.20;;;;;;4993434;28;20113;-68
2022/05/19 10:07:27;;;;;;;14.73;7.55;;;22.50;91.20;;;;;;4994532;28;20065;-68
2022/05/19 10:09:56;;;;;;;17.35;8.02;;;22.50;91.40;;;;;;4994869;28;20053;-68
2022/05/19 10:12:28;;;;;;;13.48;7.05;;;22.60;91.40;;;;;;4991463;28;20018;-69
2022/05/19 10:15:16;;;;;;;18.85;8.43;;;22.70;91.30;;;;;;4991583;28;20027;-68
2022/05/19 10:18:00;;;;;;;15.40;7.75;;;22.70;91.30;;;;;;4994916;28;20129;-68
2022/05/19 10:20:32;;;;;;;15.80;8.82;;;22.80;91.10;;;;;;4994111;28;20538;-68
2022/05/19 10:23:16;;;;;;;16.88;7.45;;;22.90;91.00;;;;;;4995508;28;20053;-68
2022/05/19 10:25:58;;;;;;;16.30;8.43;;;22.90;91.00;;;;;;4995199;28;20026;-68
2022/05/19 10:31:49;;;;;;;16.75;7.50;;;23.10;90.90;;;;;;4982891;28;20117;-68
2022/05/19 10:34:37;;;;;;;11.13;6.43;;;23.20;90.80;;;;;;4994559;28;20038;-68
2022/05/19 10:37:12;;;;;;;12.23;6.65;;;23.30;90.60;;;;;;4995308;28;20046;-69
2022/05/19 10:39:55;;;;;;;19.95;7.57;;;23.40;90.40;;;;;;4995489;28;20035;-68
2022/05/19 10:42:38;;;;;;;16.45;8.43;;;23.40;90.50;;;;;;4995284;28;20088;-69
2022/05/19 10:45:22;;;;;;;14.43;8.00;;;23.50;90.20;;;;;;4983169;28;20042;-69
2022/05/19 10:48:09;;;;;;;11.10;6.80;;;23.50;90.20;;;;;;4994696;28;20427;-68
2022/05/19 10:50:37;;;;;;;16.52;9.00;;;23.60;90.00;;;;;;4989429;28;20088;-69
2022/05/19 10:53:26;;;;;;;18.25;8.90;;;23.70;90.00;;;;;;4995591;28;20482;-68
2022/05/19 10:56:16;;;;;;;16.67;9.40;;;23.70;89.90;;;;;;4991151;28;20042;-68
2022/05/19 10:58:51;;;;;;;13.93;6.40;;;23.90;90.20;;;;;;4993751;28;20762;-68
2022/05/19 11:01:52;;;;;;;12.73;7.75;;;23.90;89.60;;;;;;4994531;28;20034;-68
2022/05/19 11:04:22;;;;;;;15.90;7.45;;;24.00;89.30;;;;;;4990930;28;20038;-69
2022/05/19 11:07:09;;;;;;;17.55;7.57;;;24.00;88.90;;;;;;4989780;28;20046;-69
2022/05/19 11:09:46;;;;;;;12.80;6.60;;;24.10;88.60;;;;;;4992986;28;20057;-69
2022/05/19 11:12:17;;;;;;;11.05;6.93;;;24.10;88.10;;;;;;4992663;28;20029;-69
2022/05/19 11:14:56;;;;;;;15.23;7.20;;;24.20;88.00;;;;;;4993819;28;20116;-68
2022/05/19 11:17:24;;;;;;;13.93;6.45;;;24.20;87.90;;;;;;4993209;28;20042;-69
2022/05/19 11:19:58;;;;;;;10.82;6.00;;;24.30;87.60;;;;;;4991774;28;21743;-70
2022/05/19 11:22:27;;;;;;;21.08;7.55;;;24.30;87.40;;;;;;4988795;28;20502;-68
2022/05/19 11:28:02;;;;;;;12.18;5.97;;;24.40;87.50;;;;;;4991595;28;20026;-68
2022/05/19 11:30:45;;;;;;;8.23;5.72;;;24.40;87.40;;;;;;4989923;28;20152;-68
2022/05/19 11:33:16;;;;;;;13.05;6.93;;;24.60;86.80;;;;;;4989131;28;20038;-69
2022/05/19 11:35:51;;;;;;;15.63;9.48;;;24.60;86.70;;;;;;4991129;28;20038;-68
2022/05/19 11:38:26;;;;;;;14.35;7.32;;;24.70;86.50;;;;;;4987958;28;20026;-69
2022/05/19 11:41:10;;;;;;;14.15;9.57;;;24.70;86.20;;;;;;4989595;28;20690;-69
2022/05/19 11:43:51;;;;;;;12.95;8.25;;;24.80;85.50;;;;;;4990137;28;20041;-69
2022/05/19 11:46:37;;;;;;;12.70;6.90;;;24.90;85.70;;;;;;4993129;28;20377;-69
2022/05/19 11:55:45;;;;;;;12.68;7.25;;;25.10;85.30;;;;;;4985830;28;20026;-69
2022/05/19 11:58:24;;;;;;;12.85;6.63;;;25.10;85.60;;;;;;4992445;28;20030;-69
2022/05/19 12:00:55;;;;;;;18.92;7.82;;;25.10;84.80;;;;;;4993136;28;20133;-69
2022/05/19 12:03:55;;;;;;;16.83;9.02;;;25.10;85.10;;;;;;4993537;28;20097;-69
2022/05/19 12:06:28;;;;;;;14.48;7.70;;;25.10;85.00;;;;;;4988606;28;20066;-68
2022/05/19 12:09:07;;;;;;;8.93;5.78;;;25.20;84.80;;;;;;4992859;28;20056;-67
2022/05/19 12:11:45;;;;;;;14.50;7.25;;;25.20;84.70;;;;;;4992822;28;20065;-67
2022/05/19 12:14:11;;;;;;;25.15;7.43;;;25.20;84.40;;;;;;4993506;28;20092;-67
2022/05/19 12:16:55;;;;;;;12.52;6.78;;;25.20;84.90;;;;;;4993480;28;20486;-67
2022/05/19 12:19:55;;;;;;;8.15;5.30;;;25.30;84.90;;;;;;4993407;28;20031;-67
2022/05/19 12:22:32;;;;;;;13.85;7.90;;;25.30;85.30;;;;;;4993411;28;20070;-67
2022/05/19 12:25:00;;;;;;;9.38;4.47;;;25.30;85.50;;;;;;4992637;28;20482;-67
2022/05/19 12:27:36;;;;;;;12.95;8.35;;;25.30;86.30;;;;;;4992623;28;20513;-67
2022/05/19 12:33:29;;;;;;;21.02;11.90;;;25.20;86.00;;;;;;4990256;28;20027;-69
2022/05/19 12:36:10;;;;;;;24.75;11.63;;;25.30;86.00;;;;;;4990862;28;20410;-68
2022/05/19 12:38:43;;;;;;;19.83;12.48;;;25.30;85.80;;;;;;4991453;28;20045;-68
2022/05/19 12:41:32;;;;;;;22.67;11.30;;;25.40;86.00;;;;;;4991175;28;20041;-68
2022/05/19 12:44:41;;;;;;;21.02;12.20;;;25.40;85.90;;;;;;4990376;28;20116;-68
2022/05/19 12:47:23;;;;;;;19.98;11.40;;;25.50;85.90;;;;;;4989871;28;20437;-68
2022/05/19 12:50:01;;;;;;;11.40;7.50;;;25.50;86.20;;;;;;4991202;28;20042;-68
2022/05/19 12:52:54;;;;;;;14.48;7.70;;;25.50;87.40;;;;;;4991544;28;20034;-70
2022/05/19 12:55:23;;;;;;;12.40;7.53;;;25.40;86.80;;;;;;4990601;28;20084;-70
2022/05/19 12:57:55;;;;;;;21.08;12.57;;;25.40;86.30;;;;;;4992266;28;20045;-69
2022/05/19 13:00:22;;;;;;;16.95;10.88;;;25.40;85.80;;;;;;4991938;28;20035;-67
2022/05/19 13:03:03;;;;;;;16.25;9.88;;;25.30;85.20;;;;;;4990734;28;20046;-67
2022/05/19 13:05:33;;;;;;;16.27;9.73;;;25.40;85.90;;;;;;4989180;28;20482;-68
2022/05/19 13:08:29;;;;;;;16.73;9.05;;;25.30;86.70;;;;;;4988825;28;20129;-66
2022/05/19 13:10:57;;;;;;;13.35;7.40;;;25.40;86.90;;;;;;4988438;28;20177;-65
2022/05/19 13:13:33;;;;;;;11.52;7.05;;;25.30;86.50;;;;;;4989498;28;20026;-66
2022/05/19 13:16:09;;;;;;;13.60;6.60;;;25.30;86.80;;;;;;4989602;28;20109;-66